Time;durP1;ratioP1;P1;durP2;ratioP2;P2;SDS_P1;SDS_P2;PMS_P1;PMS_P2;Temp;Humidity;BMP_temperature;BMP_pressure;BME280_temperature;BME280_humidity;BME280_pressure;Samples;Min_cycle;Max_cycle;Signal;HPM_P1;HPM_P2
2021/12/27 00:01:06;;;;;;;24.38;16.65;;;5.60;99.90;;;;;;5120251;28;20209;-78
2021/12/27 00:03:34;;;;;;;27.77;16.17;;;5.60;99.90;;;;;;5128155;28;20315;-78
2021/12/27 00:06:01;;;;;;;25.15;16.63;;;5.60;99.90;;;;;;5134862;28;20726;-78
2021/12/27 00:08:29;;;;;;;25.88;16.60;;;5.70;99.90;;;;;;5133440;28;20231;-78
2021/12/27 00:10:56;;;;;;;28.25;17.05;;;5.70;99.90;;;;;;5132632;28;20273;-79
2021/12/27 00:13:23;;;;;;;25.48;15.90;;;5.60;99.90;;;;;;5131600;28;20207;-79
2021/12/27 00:15:50;;;;;;;26.27;17.98;;;5.60;99.90;;;;;;5124672;28;20228;-78
2021/12/27 00:18:16;;;;;;;24.25;15.80;;;5.60;99.90;;;;;;5122385;27;20242;-79
2021/12/27 00:20:43;;;;;;;31.35;17.40;;;5.70;99.90;;;;;;5118900;28;20658;-81
2021/12/27 00:23:10;;;;;;;29.60;17.50;;;5.70;99.90;;;;;;5117568;28;20217;-77
2021/12/27 00:25:38;;;;;;;23.10;15.52;;;5.60;99.90;;;;;;5118064;27;20319;-79
2021/12/27 00:28:05;;;;;;;24.48;15.85;;;5.60;99.90;;;;;;5120128;28;20204;-78
2021/12/27 00:30:32;;;;;;;48.05;22.20;;;5.60;99.90;;;;;;5132509;28;20250;-82
2021/12/27 00:32:59;;;;;;;36.55;17.95;;;5.60;99.90;;;;;;5129908;28;20240;-79
2021/12/27 00:35:29;;;;;;;24.70;15.52;;;5.70;99.90;;;;;;5131935;28;20299;-80
2021/12/27 00:37:56;;;;;;;30.13;18.08;;;5.60;99.90;;;;;;5136463;28;20228;-79
2021/12/27 00:40:23;;;;;;;47.17;21.77;;;5.70;99.90;;;;;;5127187;28;20290;-77
2021/12/27 00:42:51;;;;;;;34.60;19.27;;;5.70;99.90;;;;;;5115915;28;20197;-78
2021/12/27 00:45:20;;;;;;;30.48;16.55;;;5.70;99.90;;;;;;5115719;28;20238;-79
2021/12/27 00:47:47;;;;;;;26.27;17.30;;;5.50;99.90;;;;;;5116188;28;20200;-79
2021/12/27 00:50:14;;;;;;;32.00;18.48;;;5.40;99.90;;;;;;5116038;28;20529;-78
2021/12/27 00:52:42;;;;;;;33.63;17.02;;;5.40;99.90;;;;;;5116240;28;20204;-78
2021/12/27 00:55:11;;;;;;;34.70;19.15;;;5.40;99.90;;;;;;5123246;28;20228;-78
2021/12/27 00:57:39;;;;;;;26.65;15.40;;;5.40;99.90;;;;;;5127756;28;20255;-78
2021/12/27 01:00:10;;;;;;;35.72;19.95;;;5.50;99.90;;;;;;5115749;28;20299;-78
2021/12/27 01:02:36;;;;;;;34.03;17.00;;;5.50;99.90;;;;;;5115735;28;20273;-78
2021/12/27 01:05:04;;;;;;;36.25;18.55;;;5.60;99.90;;;;;;5115466;27;20235;-78
2021/12/27 01:07:31;;;;;;;39.45;21.27;;;5.60;99.90;;;;;;5115439;27;20281;-79
2021/12/27 01:10:09;;;;;;;40.90;19.30;;;5.50;99.90;;;;;;5116534;28;20292;-78
2021/12/27 01:12:48;;;;;;;34.03;19.95;;;5.50;99.90;;;;;;5115426;28;20215;-78
2021/12/27 01:15:45;;;;;;;35.08;19.73;;;5.50;99.90;;;;;;5115596;28;20232;-78
2021/12/27 01:18:12;;;;;;;29.05;18.13;;;5.60;99.90;;;;;;5115054;27;20325;-78
2021/12/27 01:20:39;;;;;;;35.00;18.15;;;5.70;99.90;;;;;;5114841;28;20210;-78
2021/12/27 01:23:06;;;;;;;29.95;18.25;;;5.70;99.90;;;;;;5114853;28;20204;-79
2021/12/27 01:25:33;;;;;;;31.83;17.77;;;5.70;99.90;;;;;;5114409;28;20666;-79
2021/12/27 01:28:00;;;;;;;29.45;18.17;;;5.80;99.90;;;;;;5114351;28;20231;-78
2021/12/27 01:30:30;;;;;;;30.90;18.63;;;5.80;99.90;;;;;;5114771;28;20208;-80
2021/12/27 01:33:00;;;;;;;32.63;18.52;;;5.80;99.90;;;;;;5114039;28;20264;-78
2021/12/27 01:35:27;;;;;;;39.58;19.27;;;5.80;99.90;;;;;;5113955;28;20224;-79
2021/12/27 01:37:55;;;;;;;36.00;19.33;;;5.80;99.90;;;;;;5114090;28;20228;-78
2021/12/27 01:40:25;;;;;;;29.98;16.88;;;5.80;99.90;;;;;;5113740;27;20232;-79
2021/12/27 01:43:08;;;;;;;35.10;19.88;;;5.70;99.90;;;;;;5113802;28;20204;-79
2021/12/27 01:45:39;;;;;;;33.30;18.77;;;5.80;99.90;;;;;;5114005;28;20236;-79
2021/12/27 01:48:07;;;;;;;30.08;17.63;;;5.70;99.90;;;;;;5115013;28;20295;-79
2021/12/27 01:50:35;;;;;;;33.35;17.35;;;5.60;99.90;;;;;;5122717;28;20200;-79
2021/12/27 01:53:03;;;;;;;34.05;18.50;;;5.60;99.90;;;;;;5114486;28;20312;-78
2021/12/27 01:55:30;;;;;;;35.47;19.15;;;5.70;99.90;;;;;;5113979;28;20332;-78
2021/12/27 01:57:57;;;;;;;34.67;19.52;;;5.70;99.90;;;;;;5113589;28;20709;-78
2021/12/27 02:00:24;;;;;;;32.38;17.73;;;5.70;99.90;;;;;;5116197;28;20212;-78
2021/12/27 02:02:53;;;;;;;33.40;18.40;;;5.70;99.90;;;;;;5113398;28;20630;-77
2021/12/27 02:05:42;;;;;;;36.28;18.83;;;5.70;99.90;;;;;;5116233;28;20713;-79
2021/12/27 02:08:09;;;;;;;43.45;20.05;;;5.60;99.90;;;;;;5114736;28;20227;-77
2021/12/27 02:11:09;;;;;;;38.60;18.60;;;5.60;99.90;;;;;;5114060;28;20215;-77
2021/12/27 02:13:41;;;;;;;37.22;19.35;;;5.60;99.90;;;;;;5115423;27;20212;-79
2021/12/27 02:16:08;;;;;;;38.78;20.42;;;5.70;99.90;;;;;;5113940;28;20237;-79
2021/12/27 02:18:37;;;;;;;37.25;18.90;;;5.50;99.90;;;;;;5114215;28;20641;-77
2021/12/27 02:21:06;;;;;;;34.63;18.25;;;5.50;99.90;;;;;;5115580;28;20204;-77
2021/12/27 02:23:33;;;;;;;35.80;18.88;;;5.50;99.90;;;;;;5118061;28;20264;-77
2021/12/27 02:26:01;;;;;;;41.20;20.90;;;5.50;99.90;;;;;;5122371;28;20250;-77
2021/12/27 02:28:27;;;;;;;32.20;18.80;;;5.50;99.90;;;;;;5114740;28;20590;-78
2021/12/27 02:30:55;;;;;;;38.53;20.60;;;5.60;99.90;;;;;;5115017;28;20239;-78
2021/12/27 02:33:22;;;;;;;38.78;19.00;;;5.60;99.90;;;;;;5115426;28;20208;-77
2021/12/27 02:35:52;;;;;;;37.80;19.25;;;5.60;99.90;;;;;;5115282;28;20287;-78
2021/12/27 02:38:22;;;;;;;37.03;18.73;;;5.70;99.90;;;;;;5115592;28;20246;-77
2021/12/27 02:40:51;;;;;;;37.78;18.23;;;5.70;99.90;;;;;;5114227;28;20296;-76
2021/12/27 02:43:19;;;;;;;33.58;17.15;;;5.60;99.90;;;;;;5115251;28;20726;-78
2021/12/27 02:45:48;;;;;;;35.55;20.30;;;5.60;99.90;;;;;;5116693;28;20323;-79
2021/12/27 02:48:17;;;;;;;35.58;18.52;;;5.70;99.90;;;;;;5116091;28;20196;-78
2021/12/27 02:50:46;;;;;;;29.95;18.10;;;5.80;99.90;;;;;;5124912;28;20323;-77
2021/12/27 02:53:15;;;;;;;36.00;18.80;;;5.80;99.90;;;;;;5134922;28;20263;-77
2021/12/27 02:55:45;;;;;;;32.88;17.83;;;5.80;99.90;;;;;;5130316;28;20246;-77
2021/12/27 02:58:12;;;;;;;32.05;17.40;;;5.80;99.90;;;;;;5132656;28;20228;-78
2021/12/27 03:00:41;;;;;;;33.83;17.67;;;5.80;99.90;;;;;;5130495;28;20221;-79
2021/12/27 03:03:08;;;;;;;37.70;19.65;;;5.80;99.90;;;;;;5135191;28;20197;-78
2021/12/27 03:05:35;;;;;;;31.05;17.67;;;5.80;99.90;;;;;;5135579;28;20274;-78
2021/12/27 03:08:03;;;;;;;31.00;16.10;;;5.70;99.90;;;;;;5135926;28;20192;-78
2021/12/27 03:10:32;;;;;;;33.75;19.27;;;5.70;99.90;;;;;;5138321;28;20222;-77
2021/12/27 03:13:02;;;;;;;29.45;18.25;;;5.80;99.90;;;;;;5138649;28;20245;-79
2021/12/27 03:15:29;;;;;;;30.63;16.33;;;5.80;99.90;;;;;;5133506;28;20244;-80
2021/12/27 03:17:57;;;;;;;31.80;17.67;;;5.80;99.90;;;;;;5134312;28;20228;-78
2021/12/27 03:20:26;;;;;;;23.60;15.63;;;5.80;99.90;;;;;;5136424;28;20201;-78
2021/12/27 03:22:54;;;;;;;29.92;16.80;;;5.80;99.90;;;;;;5128120;28;20228;-79
2021/12/27 03:25:25;;;;;;;31.95;19.05;;;5.90;99.90;;;;;;5127665;28;20220;-80
2021/12/27 03:27:52;;;;;;;25.73;16.30;;;5.80;99.90;;;;;;5133066;28;20218;-79
2021/12/27 03:30:25;;;;;;;26.02;16.35;;;5.80;99.90;;;;;;5131977;28;20251;-79
2021/12/27 03:32:53;;;;;;;27.60;16.65;;;5.90;99.90;;;;;;5133472;28;20199;-80
2021/12/27 03:35:27;;;;;;;27.27;16.50;;;6.00;99.90;;;;;;5133942;28;20228;-79
2021/12/27 03:37:56;;;;;;;25.88;16.15;;;6.00;99.90;;;;;;5133493;27;20221;-77
2021/12/27 03:40:25;;;;;;;26.63;15.30;;;6.00;99.90;;;;;;5132784;28;20204;-78
2021/12/27 03:42:52;;;;;;;25.77;16.33;;;6.00;99.90;;;;;;5133259;28;20204;-77
2021/12/27 03:45:22;;;;;;;25.85;16.45;;;6.00;99.90;;;;;;5134021;28;20308;-77
2021/12/27 03:47:50;;;;;;;21.50;14.82;;;6.00;99.90;;;;;;5135109;28;20213;-79
2021/12/27 03:50:18;;;;;;;21.08;15.45;;;6.00;99.90;;;;;;5134526;28;20216;-78
2021/12/27 03:52:46;;;;;;;23.45;15.38;;;6.10;99.90;;;;;;5128175;28;20273;-78
2021/12/27 03:55:14;;;;;;;24.35;15.80;;;6.10;99.90;;;;;;5118819;28;20225;-78
2021/12/27 03:57:43;;;;;;;27.80;16.85;;;5.90;99.90;;;;;;5116864;27;20224;-78
2021/12/27 04:00:27;;;;;;;25.55;16.25;;;5.80;99.90;;;;;;5115834;28;20204;-77
2021/12/27 04:02:58;;;;;;;24.65;15.07;;;5.80;99.90;;;;;;5122001;28;20208;-78
2021/12/27 04:05:25;;;;;;;25.08;15.88;;;5.80;99.90;;;;;;5138081;28;20311;-80
2021/12/27 04:07:59;;;;;;;23.65;16.15;;;5.90;99.90;;;;;;5135137;28;20201;-79
2021/12/27 04:10:27;;;;;;;25.85;16.67;;;5.90;99.90;;;;;;5117452;28;20284;-78
2021/12/27 04:12:54;;;;;;;29.77;17.40;;;6.00;99.90;;;;;;5117308;28;20201;-78
2021/12/27 04:15:21;;;;;;;25.15;17.08;;;6.00;99.90;;;;;;5117859;28;20229;-78
2021/12/27 04:17:59;;;;;;;27.67;17.95;;;6.00;99.90;;;;;;5119509;27;20238;-78
2021/12/27 04:20:26;;;;;;;25.02;16.13;;;6.00;99.90;;;;;;5131966;28;20201;-78
2021/12/27 04:22:53;;;;;;;28.75;16.58;;;5.90;99.90;;;;;;5120471;28;20204;-78
2021/12/27 04:25:21;;;;;;;25.60;16.10;;;5.90;99.90;;;;;;5119153;28;20224;-78
2021/12/27 04:27:49;;;;;;;30.67;18.55;;;5.90;99.90;;;;;;5123723;28;20208;-78
2021/12/27 04:30:17;;;;;;;29.35;17.85;;;5.90;99.90;;;;;;5123745;27;20252;-79
2021/12/27 04:32:44;;;;;;;25.48;16.50;;;5.90;99.90;;;;;;5123981;28;20204;-79
2021/12/27 04:35:14;;;;;;;28.00;18.63;;;5.90;99.90;;;;;;5123858;28;20259;-79
2021/12/27 04:37:41;;;;;;;29.70;18.30;;;5.90;99.90;;;;;;5124759;28;20221;-79
2021/12/27 04:40:11;;;;;;;27.85;16.85;;;5.80;99.90;;;;;;5124247;28;20219;-79
2021/12/27 04:42:39;;;;;;;25.35;16.85;;;5.90;99.90;;;;;;5127667;28;20701;-78
2021/12/27 04:45:07;;;;;;;29.35;18.00;;;5.90;99.90;;;;;;5125556;28;20245;-78
2021/12/27 04:47:34;;;;;;;25.88;16.90;;;5.80;99.90;;;;;;5118597;28;20283;-77
2021/12/27 04:50:01;;;;;;;29.92;18.20;;;5.90;99.90;;;;;;5115423;28;20200;-77
2021/12/27 04:52:29;;;;;;;24.30;16.52;;;6.00;99.90;;;;;;5115200;28;20250;-77
2021/12/27 04:54:56;;;;;;;22.90;15.30;;;5.90;99.90;;;;;;5116234;28;20232;-77
2021/12/27 04:57:23;;;;;;;28.33;18.05;;;5.90;99.90;;;;;;5116356;28;20738;-77
2021/12/27 04:59:50;;;;;;;25.40;17.48;;;6.00;99.90;;;;;;5116348;28;20216;-78
2021/12/27 05:02:17;;;;;;;25.23;16.35;;;6.00;99.90;;;;;;5117050;28;20275;-77
2021/12/27 05:04:44;;;;;;;23.15;16.10;;;5.90;99.90;;;;;;5116965;28;20228;-77
2021/12/27 05:07:10;;;;;;;24.00;16.80;;;5.90;99.90;;;;;;5119134;28;20251;-77
2021/12/27 05:09:39;;;;;;;25.45;17.73;;;6.00;99.90;;;;;;5117865;28;20212;-78
2021/12/27 05:12:07;;;;;;;22.88;17.95;;;6.00;99.90;;;;;;5132616;28;20310;-78
2021/12/27 05:14:34;;;;;;;22.27;15.93;;;5.90;99.90;;;;;;5122647;28;20734;-79
2021/12/27 05:17:01;;;;;;;23.92;15.73;;;6.00;99.90;;;;;;5134293;28;20238;-80
2021/12/27 05:19:27;;;;;;;25.80;17.30;;;6.00;99.90;;;;;;5128960;28;20228;-79
2021/12/27 05:21:54;;;;;;;19.52;15.52;;;6.00;99.90;;;;;;5119137;28;20298;-79
2021/12/27 05:24:22;;;;;;;21.63;16.60;;;6.10;99.90;;;;;;5119244;28;20232;-78
2021/12/27 05:26:51;;;;;;;23.60;16.92;;;6.10;99.90;;;;;;5119062;28;20219;-79
2021/12/27 05:29:18;;;;;;;22.10;16.23;;;6.10;99.90;;;;;;5113841;28;20226;-78
2021/12/27 05:31:45;;;;;;;22.90;17.55;;;6.20;99.90;;;;;;5115503;28;20572;-78
2021/12/27 05:34:14;;;;;;;23.55;16.88;;;6.20;99.90;;;;;;5119367;28;20235;-78
2021/12/27 05:36:42;;;;;;;23.33;18.05;;;6.10;99.90;;;;;;5115024;28;20641;-78
2021/12/27 05:39:08;;;;;;;25.13;16.48;;;6.10;99.90;;;;;;5114321;27;20251;-79
2021/12/27 05:41:35;;;;;;;24.10;19.17;;;6.00;99.90;;;;;;5114457;28;20208;-79
2021/12/27 05:44:04;;;;;;;25.35;17.83;;;5.90;99.90;;;;;;5114379;28;20204;-77
2021/12/27 05:46:32;;;;;;;26.88;18.85;;;5.90;99.90;;;;;;5114765;28;20227;-79
2021/12/27 05:48:58;;;;;;;25.75;16.90;;;5.90;99.90;;;;;;5114785;28;20235;-79
2021/12/27 05:51:25;;;;;;;29.05;19.13;;;5.80;99.90;;;;;;5113747;28;20714;-78
2021/12/27 05:53:53;;;;;;;21.40;17.00;;;5.80;99.90;;;;;;5114316;28;20299;-78
2021/12/27 05:56:19;;;;;;;29.73;19.73;;;5.80;99.90;;;;;;5115654;28;20295;-78
2021/12/27 05:58:47;;;;;;;25.67;17.17;;;5.80;99.90;;;;;;5115119;28;20246;-77
2021/12/27 06:01:15;;;;;;;23.58;17.52;;;5.90;99.90;;;;;;5125390;28;20192;-79
2021/12/27 06:03:42;;;;;;;23.05;16.55;;;5.90;99.90;;;;;;5128649;28;20212;-77
2021/12/27 06:06:09;;;;;;;19.92;14.75;;;5.90;99.90;;;;;;5124666;28;20653;-79
2021/12/27 06:08:36;;;;;;;19.55;14.77;;;6.00;99.90;;;;;;5126453;28;20208;-79
2021/12/27 06:11:03;;;;;;;19.15;15.05;;;5.90;99.90;;;;;;5127807;28;20212;-78
2021/12/27 06:13:29;;;;;;;20.15;15.13;;;6.00;99.90;;;;;;5131572;28;20227;-80
2021/12/27 06:15:56;;;;;;;24.77;17.45;;;5.90;99.90;;;;;;5134219;28;20257;-79
2021/12/27 06:18:25;;;;;;;25.48;17.85;;;5.80;99.90;;;;;;5123682;28;20248;-80
2021/12/27 06:20:52;;;;;;;20.65;15.43;;;5.80;99.90;;;;;;5121368;28;20236;-79
2021/12/27 06:23:19;;;;;;;25.02;17.48;;;5.70;99.90;;;;;;5123640;28;20216;-80
2021/12/27 06:25:46;;;;;;;23.23;17.05;;;5.70;99.90;;;;;;5126722;28;20244;-79
2021/12/27 06:28:13;;;;;;;21.20;14.65;;;5.70;99.90;;;;;;5129801;28;20200;-79
2021/12/27 06:30:41;;;;;;;22.33;15.57;;;5.70;99.90;;;;;;5122890;28;20255;-79
2021/12/27 06:33:10;;;;;;;21.13;16.45;;;5.60;99.90;;;;;;5124648;28;20220;-80
2021/12/27 06:35:55;;;;;;;21.23;15.90;;;5.70;99.90;;;;;;5125128;28;20244;-79
2021/12/27 06:38:22;;;;;;;20.58;14.15;;;5.60;99.90;;;;;;5133406;28;20204;-77
2021/12/27 06:40:49;;;;;;;20.23;15.30;;;5.50;99.90;;;;;;5136231;28;20215;-77
2021/12/27 06:43:16;;;;;;;19.75;15.50;;;5.50;99.90;;;;;;5135815;28;20204;-78
2021/12/27 06:45:43;;;;;;;24.67;16.10;;;5.50;99.90;;;;;;5129918;28;20231;-80
2021/12/27 06:48:11;;;;;;;19.55;15.65;;;5.60;99.90;;;;;;5120890;28;20196;-78
2021/12/27 06:50:39;;;;;;;22.98;15.07;;;5.60;99.90;;;;;;5120946;28;20208;-78
2021/12/27 06:53:06;;;;;;;24.90;16.02;;;5.60;99.90;;;;;;5133694;28;20295;-78
2021/12/27 06:55:33;;;;;;;26.17;16.85;;;5.60;99.90;;;;;;5133335;28;20224;-82
2021/12/27 06:58:00;;;;;;;22.05;15.45;;;5.60;99.90;;;;;;5131796;28;20268;-79
2021/12/27 07:00:27;;;;;;;19.30;14.90;;;5.60;99.90;;;;;;5133110;28;20282;-81
2021/12/27 07:02:54;;;;;;;20.95;15.70;;;5.60;99.90;;;;;;5116823;28;20650;-79
2021/12/27 07:05:21;;;;;;;21.25;14.77;;;5.70;99.90;;;;;;5113961;28;20306;-79
2021/12/27 07:07:49;;;;;;;20.40;15.48;;;5.70;99.90;;;;;;5113384;28;20204;-78
2021/12/27 07:10:17;;;;;;;21.25;14.60;;;5.80;99.90;;;;;;5112773;28;20200;-78
2021/12/27 07:12:44;;;;;;;23.15;13.93;;;5.80;99.90;;;;;;5112931;28;20205;-77
2021/12/27 07:15:11;;;;;;;20.38;13.88;;;5.80;99.90;;;;;;5114194;28;20224;-79
2021/12/27 07:17:38;;;;;;;20.48;14.00;;;5.90;99.90;;;;;;5114533;28;20280;-79
2021/12/27 07:20:06;;;;;;;18.67;14.05;;;5.80;99.90;;;;;;5114982;28;20224;-80
2021/12/27 07:22:34;;;;;;;22.73;14.55;;;5.80;99.90;;;;;;5114848;28;20243;-80
2021/12/27 07:25:02;;;;;;;19.67;14.00;;;5.80;99.90;;;;;;5115140;28;20225;-79
2021/12/27 07:27:29;;;;;;;18.27;13.73;;;5.70;99.90;;;;;;5116536;28;20215;-80
2021/12/27 07:29:56;;;;;;;19.60;13.85;;;5.70;99.90;;;;;;5119389;28;20242;-81
2021/12/27 07:32:23;;;;;;;21.13;14.63;;;5.60;99.90;;;;;;5131037;28;20268;-79
2021/12/27 07:34:50;;;;;;;18.38;13.20;;;5.60;99.90;;;;;;5123429;28;20224;-79
2021/12/27 07:37:17;;;;;;;20.55;15.27;;;5.60;99.90;;;;;;5129929;28;20206;-80
2021/12/27 07:39:45;;;;;;;19.27;14.48;;;5.60;99.90;;;;;;5119774;28;20231;-81
2021/12/27 07:42:13;;;;;;;20.83;15.27;;;5.60;99.90;;;;;;5117800;28;20258;-78
2021/12/27 07:44:40;;;;;;;20.75;14.73;;;5.60;99.90;;;;;;5119933;28;20232;-78
2021/12/27 07:47:07;;;;;;;21.10;15.30;;;5.60;99.90;;;;;;5112935;28;20224;-79
2021/12/27 07:49:34;;;;;;;20.35;14.88;;;5.60;99.90;;;;;;5112913;28;20196;-78
2021/12/27 07:52:01;;;;;;;21.98;15.23;;;5.70;99.90;;;;;;5112487;28;20247;-79
2021/12/27 07:54:28;;;;;;;21.00;15.45;;;5.70;99.90;;;;;;5113188;28;20224;-78
2021/12/27 07:56:55;;;;;;;19.85;13.65;;;5.70;99.90;;;;;;5115252;28;20234;-78
2021/12/27 07:59:23;;;;;;;19.85;15.40;;;5.80;99.90;;;;;;5116282;27;20706;-79
2021/12/27 08:01:50;;;;;;;20.70;14.50;;;5.80;99.90;;;;;;5116588;27;20666;-78
2021/12/27 08:04:17;;;;;;;19.65;13.95;;;5.80;99.90;;;;;;5117121;28;20232;-78
2021/12/27 08:06:44;;;;;;;21.45;15.30;;;5.90;99.90;;;;;;5119061;28;20238;-79
2021/12/27 08:09:11;;;;;;;20.95;14.10;;;6.10;99.90;;;;;;5138306;28;20188;-82
2021/12/27 08:11:38;;;;;;;18.20;13.18;;;6.00;99.90;;;;;;5138923;28;20188;-82
2021/12/27 08:14:05;;;;;;;18.90;14.90;;;5.90;99.90;;;;;;5137956;28;20328;-80
2021/12/27 08:16:33;;;;;;;19.45;14.55;;;6.00;99.90;;;;;;5138570;28;20189;-83
2021/12/27 08:19:01;;;;;;;21.02;14.55;;;6.00;99.90;;;;;;5135220;27;20220;-79
2021/12/27 08:21:29;;;;;;;22.90;14.35;;;6.00;99.90;;;;;;5125023;28;20695;-79
2021/12/27 08:23:55;;;;;;;24.25;15.25;;;6.10;99.90;;;;;;5121406;28;20220;-80
2021/12/27 08:26:22;;;;;;;20.17;13.85;;;6.00;99.90;;;;;;5121020;28;20230;-79
2021/12/27 08:28:52;;;;;;;15.10;11.48;;;6.10;99.90;;;;;;5121238;28;20287;-79
2021/12/27 08:31:19;;;;;;;18.38;13.32;;;6.20;99.90;;;;;;5120887;28;20215;-79
2021/12/27 08:33:47;;;;;;;16.30;11.75;;;6.20;99.90;;;;;;5119568;28;20318;-78
2021/12/27 08:36:14;;;;;;;18.95;13.00;;;6.20;99.90;;;;;;5120539;28;20205;-78
2021/12/27 08:38:44;;;;;;;15.48;11.70;;;6.20;99.90;;;;;;5118229;28;20231;-79
2021/12/27 08:41:11;;;;;;;15.55;11.45;;;6.30;99.90;;;;;;5117511;28;20271;-78
2021/12/27 08:43:38;;;;;;;17.00;11.20;;;6.30;99.90;;;;;;5117777;28;20247;-78
2021/12/27 08:46:05;;;;;;;17.35;12.05;;;6.40;99.90;;;;;;5121264;28;20240;-79
2021/12/27 08:48:32;;;;;;;13.50;10.93;;;6.40;99.90;;;;;;5120715;28;20204;-78
2021/12/27 08:51:01;;;;;;;15.07;11.63;;;6.30;99.90;;;;;;5121909;28;20212;-79
2021/12/27 08:53:28;;;;;;;15.02;10.75;;;6.50;99.90;;;;;;5124273;28;20276;-79
2021/12/27 08:55:55;;;;;;;13.45;10.65;;;6.60;99.90;;;;;;5123150;28;20224;-80
2021/12/27 08:58:24;;;;;;;13.30;10.70;;;6.60;99.90;;;;;;5125836;28;20222;-77
2021/12/27 09:00:51;;;;;;;11.00;9.85;;;6.70;99.90;;;;;;5128133;28;20212;-80
2021/12/27 09:03:18;;;;;;;15.95;10.90;;;6.70;99.90;;;;;;5127757;28;20208;-80
2021/12/27 09:05:46;;;;;;;12.45;10.30;;;6.80;99.90;;;;;;5128535;28;20224;-79
2021/12/27 09:08:14;;;;;;;12.55;10.00;;;7.00;99.90;;;;;;5132031;28;20591;-79
2021/12/27 09:10:41;;;;;;;15.15;10.85;;;7.20;99.90;;;;;;5123027;28;20587;-79
2021/12/27 09:13:08;;;;;;;19.25;10.02;;;7.30;99.90;;;;;;5126362;28;20298;-79
2021/12/27 09:15:36;;;;;;;14.70;9.10;;;7.20;99.90;;;;;;5125365;28;20244;-80
2021/12/27 09:18:03;;;;;;;11.48;9.25;;;7.10;99.90;;;;;;5126350;28;20224;-80
2021/12/27 09:20:33;;;;;;;11.27;9.43;;;7.10;99.90;;;;;;5128114;28;20224;-79
2021/12/27 09:23:00;;;;;;;11.77;9.80;;;7.20;99.90;;;;;;5127164;28;20196;-80
2021/12/27 09:25:28;;;;;;;16.52;9.43;;;7.30;99.90;;;;;;5127128;28;20224;-80
2021/12/27 09:27:55;;;;;;;11.68;9.82;;;7.20;99.90;;;;;;5126664;28;20276;-79
2021/12/27 09:30:22;;;;;;;11.73;8.95;;;7.40;99.90;;;;;;5130003;28;20192;-78
2021/12/27 09:32:50;;;;;;;11.88;8.63;;;7.50;99.90;;;;;;5134473;28;20212;-81
2021/12/27 09:35:18;;;;;;;10.15;8.85;;;7.70;99.90;;;;;;5133813;27;20298;-79
2021/12/27 09:37:45;;;;;;;11.30;8.63;;;7.80;99.90;;;;;;5132628;28;20584;-80
2021/12/27 09:40:13;;;;;;;10.40;8.18;;;7.90;99.90;;;;;;5127736;28;20254;-78
2021/12/27 09:42:41;;;;;;;10.07;8.35;;;7.90;99.90;;;;;;5128815;28;20212;-79
2021/12/27 09:45:09;;;;;;;11.13;8.30;;;7.90;99.90;;;;;;5129227;28;20244;-79
2021/12/27 09:47:37;;;;;;;7.97;7.13;;;7.90;99.90;;;;;;5128090;28;20247;-80
2021/12/27 09:50:08;;;;;;;11.30;8.48;;;8.00;99.90;;;;;;5134591;28;20316;-79
2021/12/27 09:52:35;;;;;;;10.23;7.93;;;8.00;99.90;;;;;;5136982;28;20188;-78
2021/12/27 09:55:04;;;;;;;7.43;6.70;;;8.10;99.90;;;;;;5133783;28;20208;-78
2021/12/27 09:57:33;;;;;;;9.13;6.95;;;8.10;99.90;;;;;;5136890;28;20264;-79
2021/12/27 10:00:02;;;;;;;8.25;7.10;;;8.20;99.90;;;;;;5126805;28;20227;-80
2021/12/27 10:02:28;;;;;;;8.20;7.40;;;8.20;99.90;;;;;;5125648;28;20200;-81
2021/12/27 10:04:55;;;;;;;7.60;6.10;;;8.20;99.90;;;;;;5133652;28;20250;-80
2021/12/27 10:07:23;;;;;;;6.15;5.55;;;8.10;99.90;;;;;;5131536;28;20452;-80
2021/12/27 10:09:55;;;;;;;8.23;6.00;;;8.20;99.90;;;;;;5123296;28;20247;-78
2021/12/27 10:12:23;;;;;;;9.73;7.28;;;8.20;99.90;;;;;;5115714;28;20214;-78
2021/12/27 10:14:56;;;;;;;6.55;5.95;;;8.30;99.90;;;;;;5116147;28;20234;-79
2021/12/27 10:17:25;;;;;;;8.70;6.60;;;8.30;99.90;;;;;;5119972;28;20215;-79
2021/12/27 10:19:53;;;;;;;8.07;5.93;;;8.40;99.90;;;;;;5116944;28;20706;-79
2021/12/27 10:22:21;;;;;;;6.78;5.50;;;8.40;99.90;;;;;;5120279;28;20243;-79
2021/12/27 10:24:52;;;;;;;7.60;6.03;;;8.60;99.90;;;;;;5127749;28;20224;-81
2021/12/27 10:27:19;;;;;;;5.82;5.30;;;8.60;99.90;;;;;;5128940;28;20196;-79
2021/12/27 10:29:46;;;;;;;6.40;5.13;;;8.70;99.90;;;;;;5130316;28;20223;-82
2021/12/27 10:32:16;;;;;;;6.43;5.30;;;8.70;99.90;;;;;;5131522;28;20241;-78
2021/12/27 10:34:46;;;;;;;5.90;4.85;;;8.80;99.90;;;;;;5121410;28;20258;-80
2021/12/27 10:37:18;;;;;;;5.10;4.70;;;8.80;99.90;;;;;;5121333;28;20200;-80
2021/12/27 10:39:51;;;;;;;4.70;4.30;;;8.90;99.90;;;;;;5123420;28;20242;-79
2021/12/27 10:42:22;;;;;;;9.38;5.30;;;9.00;99.90;;;;;;5128388;28;20208;-79
2021/12/27 10:44:51;;;;;;;4.53;4.13;;;9.00;99.90;;;;;;5134469;28;20223;-79
2021/12/27 10:47:32;;;;;;;6.03;5.43;;;9.10;99.90;;;;;;5133239;28;20214;-80
2021/12/27 10:50:05;;;;;;;6.47;5.88;;;9.20;99.90;;;;;;5124195;28;20210;-80
2021/12/27 10:52:47;;;;;;;6.70;3.78;;;9.30;99.90;;;;;;5122877;28;20269;-81
2021/12/27 10:55:16;;;;;;;5.88;4.03;;;9.50;99.30;;;;;;5119535;28;20235;-79
2021/12/27 10:57:43;;;;;;;3.58;3.25;;;9.60;98.70;;;;;;5118866;28;20200;-79
2021/12/27 11:00:27;;;;;;;3.88;3.20;;;9.70;97.40;;;;;;5117525;28;20313;-80
2021/12/27 11:02:55;;;;;;;3.28;2.97;;;9.80;96.20;;;;;;5118989;28;20314;-80
2021/12/27 11:05:25;;;;;;;4.80;3.47;;;9.90;95.30;;;;;;5118312;28;20239;-80
2021/12/27 11:07:53;;;;;;;5.93;3.85;;;10.10;93.10;;;;;;5125168;28;20234;-80
2021/12/27 11:10:24;;;;;;;5.50;3.15;;;10.20;93.00;;;;;;5128080;28;20271;-82
2021/12/27 11:12:51;;;;;;;4.30;3.85;;;10.30;91.70;;;;;;5133327;28;20227;-79
2021/12/27 11:15:19;;;;;;;3.78;3.42;;;10.50;91.50;;;;;;5122617;28;20240;-79
2021/12/27 11:17:46;;;;;;;3.22;2.92;;;10.60;91.00;;;;;;5121288;28;20205;-79
2021/12/27 11:20:14;;;;;;;5.07;3.00;;;10.60;87.80;;;;;;5124608;28;20307;-82
2021/12/27 11:22:45;;;;;;;3.97;3.22;;;10.70;87.90;;;;;;5122502;28;20351;-79
2021/12/27 11:25:24;;;;;;;6.47;3.50;;;10.80;85.90;;;;;;5120546;28;20262;-82
2021/12/27 11:27:51;;;;;;;9.18;4.53;;;10.80;85.70;;;;;;5121982;28;20208;-81
2021/12/27 11:30:23;;;;;;;8.00;4.25;;;10.90;85.50;;;;;;5122130;28;20200;-80
2021/12/27 11:33:12;;;;;;;7.45;4.18;;;11.00;85.60;;;;;;5126776;28;20200;-80
2021/12/27 11:35:56;;;;;;;5.03;3.13;;;10.90;84.60;;;;;;5127062;28;20229;-80
2021/12/27 11:38:31;;;;;;;3.28;2.50;;;11.00;83.80;;;;;;5124634;28;20340;-79
2021/12/27 11:40:59;;;;;;;3.22;2.55;;;10.90;83.90;;;;;;5129446;28;20240;-81
2021/12/27 11:43:50;;;;;;;4.10;2.55;;;10.90;85.40;;;;;;5128373;27;20219;-80
2021/12/27 11:46:18;;;;;;;4.07;3.05;;;11.10;85.70;;;;;;5127025;28;20212;-79
2021/12/27 11:48:46;;;;;;;4.80;2.92;;;11.20;85.80;;;;;;5122724;28;20223;-79
2021/12/27 11:51:13;;;;;;;2.75;2.55;;;11.40;85.00;;;;;;5121930;28;20301;-79
2021/12/27 11:53:52;;;;;;;2.90;2.40;;;11.60;84.60;;;;;;5121166;28;20228;-79
2021/12/27 11:56:50;;;;;;;2.80;2.42;;;11.70;82.10;;;;;;5121386;27;20257;-79
2021/12/27 11:59:35;;;;;;;3.08;2.80;;;11.90;80.10;;;;;;5122574;28;20238;-79
2021/12/27 12:02:23;;;;;;;2.95;2.55;;;12.00;79.30;;;;;;5121151;27;20205;-79
2021/12/27 12:04:51;;;;;;;2.58;2.38;;;12.10;78.20;;;;;;5123353;28;20315;-81
2021/12/27 12:07:51;;;;;;;5.75;2.45;;;11.80;79.20;;;;;;5125628;28;20204;-78
2021/12/27 12:10:20;;;;;;;3.58;2.85;;;11.90;79.90;;;;;;5130333;27;20196;-81
2021/12/27 12:13:16;;;;;;;3.42;2.50;;;11.80;80.10;;;;;;5131763;28;20630;-80
2021/12/27 12:16:00;;;;;;;2.70;2.35;;;11.90;80.20;;;;;;5134126;28;20251;-81
2021/12/27 12:18:31;;;;;;;3.42;2.90;;;11.90;80.60;;;;;;5130526;28;20210;-80
2021/12/27 12:20:59;;;;;;;3.08;2.50;;;11.80;81.40;;;;;;5120118;28;20521;-81
2021/12/27 12:23:26;;;;;;;4.50;2.85;;;11.70;82.80;;;;;;5123558;28;20234;-80
2021/12/27 12:26:01;;;;;;;2.50;2.30;;;11.70;84.20;;;;;;5119880;28;20610;-80
2021/12/27 12:28:29;;;;;;;3.75;2.92;;;11.70;85.10;;;;;;5121648;28;20200;-79
2021/12/27 12:30:57;;;;;;;3.03;2.83;;;11.70;86.20;;;;;;5126725;28;20201;-80
2021/12/27 12:33:26;;;;;;;2.83;2.20;;;11.60;87.30;;;;;;5128794;28;20205;-80
2021/12/27 12:35:57;;;;;;;2.70;2.50;;;11.50;90.00;;;;;;5128138;28;20319;-80
2021/12/27 12:38:27;;;;;;;3.35;2.80;;;11.50;90.60;;;;;;5129404;27;20230;-80
2021/12/27 12:41:02;;;;;;;3.75;3.40;;;11.40;90.10;;;;;;5131704;28;20222;-80
2021/12/27 12:43:37;;;;;;;5.10;3.60;;;11.20;90.60;;;;;;5132094;28;20233;-79
2021/12/27 12:46:17;;;;;;;4.65;3.70;;;11.10;91.40;;;;;;5134939;28;20235;-79
2021/12/27 12:48:45;;;;;;;4.40;3.45;;;11.10;92.00;;;;;;5136929;28;20244;-80
2021/12/27 12:51:12;;;;;;;3.97;3.30;;;11.10;91.90;;;;;;5132700;28;20205;-80